createdAt,value
2019-04-27T00:00:38.347Z,993.02
2019-04-27T00:01:40.599Z,993.01
2019-04-27T00:02:38.489Z,992.97
2019-04-27T00:03:41.338Z,992.97
2019-04-27T00:04:38.314Z,993.02
2019-04-27T00:05:38.293Z,992.98
2019-04-27T00:06:38.353Z,992.95
2019-04-27T00:07:38.281Z,992.98
2019-04-27T00:08:39.257Z,992.94
2019-04-27T00:09:43.168Z,992.97
2019-04-27T00:10:39.243Z,992.94
2019-04-27T00:11:42.204Z,992.95
2019-04-27T00:12:39.231Z,992.92
2019-04-27T00:13:40.716Z,992.92
2019-04-27T00:14:38.211Z,992.90
2019-04-27T00:15:38.196Z,992.94
2019-04-27T00:16:40.476Z,992.88
2019-04-27T00:17:48.676Z,992.91
2019-04-27T00:18:39.153Z,992.85
2019-04-27T00:19:38.148Z,992.92
2019-04-27T00:20:38.131Z,992.94
2019-04-27T00:21:38.125Z,992.89
2019-04-27T00:22:38.125Z,992.86
2019-04-27T00:23:38.102Z,992.96
2019-04-27T00:24:38.095Z,992.87
2019-04-27T00:25:38.083Z,992.91
2019-04-27T00:26:38.089Z,992.94
2019-04-27T00:27:38.067Z,992.92
2019-04-27T00:28:38.054Z,992.96
2019-04-27T00:29:38.040Z,992.94
2019-04-27T00:30:38.024Z,992.91
2019-04-27T00:31:38.017Z,992.91
2019-04-27T00:32:39.764Z,992.94
2019-04-27T00:33:37.995Z,992.85
2019-04-27T00:34:37.986Z,992.90
2019-04-27T00:35:37.972Z,992.89
2019-04-27T00:36:37.964Z,992.89
2019-04-27T00:37:37.984Z,992.87
2019-04-27T00:38:37.946Z,992.88
2019-04-27T00:39:37.935Z,992.94
2019-04-27T00:40:37.920Z,992.88
2019-04-27T00:41:37.910Z,992.86
2019-04-27T00:42:37.912Z,992.88
2019-04-27T00:43:37.893Z,992.85
2019-04-27T00:44:37.877Z,992.80
2019-04-27T00:45:37.870Z,992.87
2019-04-27T00:46:37.857Z,992.89
2019-04-27T00:47:37.855Z,992.85
2019-04-27T00:48:37.835Z,992.86
2019-04-27T00:49:37.835Z,992.83
2019-04-27T00:50:37.811Z,992.77
2019-04-27T00:51:37.799Z,992.88
2019-04-27T00:52:37.804Z,992.81
2019-04-27T00:53:37.778Z,992.83
2019-04-27T00:54:37.766Z,992.74
2019-04-27T00:55:37.759Z,992.71
2019-04-27T00:56:37.750Z,992.77
2019-04-27T00:57:37.749Z,992.69
2019-04-27T00:58:37.728Z,992.68
2019-04-27T00:59:37.714Z,992.69
2019-04-27T01:00:37.707Z,992.71
2019-04-27T01:01:37.692Z,992.68
2019-04-27T01:02:37.690Z,992.69
2019-04-27T01:03:37.669Z,992.68
2019-04-27T01:04:37.658Z,992.67
2019-04-27T01:05:37.647Z,992.69
2019-04-27T01:06:37.639Z,992.74
2019-04-27T01:07:37.641Z,992.66
2019-04-27T01:08:37.618Z,992.68
2019-04-27T01:09:37.603Z,992.71
2019-04-27T01:10:37.596Z,992.61
2019-04-27T01:11:37.585Z,992.64
2019-04-27T01:12:37.588Z,992.59
2019-04-27T01:13:37.572Z,992.58
2019-04-27T01:14:37.556Z,992.68
2019-04-27T01:15:37.539Z,992.62
2019-04-27T01:16:39.166Z,992.62
2019-04-27T01:17:39.086Z,992.63
2019-04-27T01:18:38.732Z,992.61
2019-04-27T01:19:39.154Z,992.66
2019-04-27T01:20:38.818Z,992.56
2019-04-27T01:21:37.484Z,992.56
2019-04-27T01:22:39.131Z,992.53
2019-04-27T01:23:38.528Z,992.57
2019-04-27T01:24:39.043Z,992.50
2019-04-27T01:25:38.812Z,992.55
2019-04-27T01:26:38.768Z,992.58
2019-04-27T01:27:37.414Z,992.49
2019-04-27T01:28:38.871Z,992.54
2019-04-27T01:29:37.387Z,992.46
2019-04-27T01:30:39.115Z,992.45
2019-04-27T01:31:37.369Z,992.44
2019-04-27T01:32:39.096Z,992.45
2019-04-27T01:33:38.934Z,992.47
2019-04-27T01:34:37.338Z,992.53
2019-04-27T01:35:39.006Z,992.43
2019-04-27T01:36:39.125Z,992.50
2019-04-27T01:37:38.681Z,992.44
2019-04-27T01:38:39.242Z,992.44
2019-04-27T01:39:38.712Z,992.45
2019-04-27T01:40:38.559Z,992.41
2019-04-27T01:41:39.024Z,992.45
2019-04-27T01:42:37.247Z,992.42
2019-04-27T01:43:38.784Z,992.43
2019-04-27T01:44:37.227Z,992.47
2019-04-27T01:45:38.986Z,992.46
2019-04-27T01:46:37.213Z,992.45
2019-04-27T01:47:39.066Z,992.39
2019-04-27T01:48:38.700Z,992.35
2019-04-27T01:49:37.179Z,992.40
2019-04-27T01:50:39.063Z,992.42
2019-04-27T01:51:39.030Z,992.37
2019-04-27T01:52:38.518Z,992.37
2019-04-27T01:53:38.891Z,992.46
2019-04-27T01:54:37.124Z,992.44
2019-04-27T01:55:38.625Z,992.37
2019-04-27T01:56:37.121Z,992.45
2019-04-27T01:57:38.659Z,992.40
2019-04-27T01:58:37.091Z,992.31
2019-04-27T01:59:38.623Z,992.36
2019-04-27T02:00:37.062Z,992.37
2019-04-27T02:01:38.869Z,992.32
2019-04-27T02:02:37.032Z,992.29
2019-04-27T02:03:38.611Z,992.28
2019-04-27T02:04:37.014Z,992.25
2019-04-27T02:05:37.006Z,992.20
2019-04-27T02:06:38.574Z,992.17
2019-04-27T02:07:36.979Z,992.21
2019-04-27T02:08:36.980Z,992.22
2019-04-27T02:09:38.312Z,992.24
2019-04-27T02:10:36.951Z,992.23
2019-04-27T02:11:38.811Z,992.18
2019-04-27T02:12:36.934Z,992.23
2019-04-27T02:13:36.938Z,992.20
2019-04-27T02:14:36.904Z,992.20
2019-04-27T02:15:36.893Z,992.27
2019-04-27T02:16:36.887Z,992.22
2019-04-27T02:17:38.569Z,992.27
2019-04-27T02:18:39.572Z,992.18
2019-04-27T02:19:36.854Z,992.23
2019-04-27T02:20:38.673Z,992.24
2019-04-27T02:21:36.840Z,992.18
2019-04-27T02:22:38.371Z,992.21
2019-04-27T02:23:36.822Z,992.18
2019-04-27T02:24:36.808Z,992.17
2019-04-27T02:25:36.784Z,992.10
2019-04-27T02:26:36.774Z,992.11
2019-04-27T02:27:36.768Z,992.13
2019-04-27T02:28:36.790Z,992.08
2019-04-27T02:29:36.744Z,992.11
2019-04-27T02:30:36.735Z,992.05
2019-04-27T02:31:36.720Z,992.11
2019-04-27T02:32:36.711Z,992.12
2019-04-27T02:33:36.722Z,992.13
2019-04-27T02:34:36.724Z,992.13
2019-04-27T02:35:36.677Z,992.12
2019-04-27T02:36:39.000Z,992.09
2019-04-27T02:37:36.655Z,992.09
2019-04-27T02:38:36.649Z,992.07
2019-04-27T02:39:36.645Z,992.03
2019-04-27T02:40:42.297Z,992.04
2019-04-27T02:41:39.844Z,992.08
2019-04-27T02:42:36.607Z,992.14
2019-04-27T02:43:36.593Z,992.12
2019-04-27T02:44:36.591Z,992.11
2019-04-27T02:45:36.568Z,992.08
2019-04-27T02:46:36.558Z,992.10
2019-04-27T02:47:36.559Z,992.13
2019-04-27T02:48:54.765Z,992.09
2019-04-27T02:49:40.379Z,992.11
2019-04-27T02:50:36.519Z,992.14
2019-04-27T02:51:36.518Z,992.07
2019-04-27T02:52:36.492Z,992.10
2019-04-27T02:53:36.483Z,992.10
2019-04-27T02:54:36.487Z,992.01
2019-04-27T02:55:36.460Z,991.95
2019-04-27T02:56:36.458Z,991.98
2019-04-27T02:57:36.436Z,991.95
2019-04-27T02:58:36.449Z,991.99
2019-04-27T02:59:36.433Z,991.95
2019-04-27T03:00:36.408Z,992.02
2019-04-27T03:01:36.405Z,991.99
2019-04-27T03:02:36.383Z,992.04
2019-04-27T03:03:36.374Z,991.99
2019-04-27T03:04:36.390Z,991.93
2019-04-27T03:05:36.352Z,991.96
2019-04-27T03:06:36.340Z,991.90
2019-04-27T03:07:36.335Z,991.87
2019-04-27T03:08:36.318Z,991.89
2019-04-27T03:09:36.335Z,991.85
2019-04-27T03:10:36.301Z,991.84
2019-04-27T03:11:36.292Z,991.87
2019-04-27T03:12:36.275Z,991.92
2019-04-27T03:13:36.264Z,991.89
2019-04-27T03:14:36.688Z,991.89
2019-04-27T03:15:36.246Z,991.81
2019-04-27T03:16:36.235Z,991.79
2019-04-27T03:17:36.232Z,991.83
2019-04-27T03:18:36.210Z,991.77
2019-04-27T03:19:36.207Z,991.82
2019-04-27T03:20:36.195Z,991.82
2019-04-27T03:21:36.176Z,991.80
2019-04-27T03:22:36.170Z,991.86
2019-04-27T03:23:36.159Z,991.84
2019-04-27T03:24:36.157Z,991.81
2019-04-27T03:25:36.149Z,991.84
2019-04-27T03:26:36.124Z,991.76
2019-04-27T03:27:36.113Z,991.85
2019-04-27T03:28:36.101Z,991.78
2019-04-27T03:29:36.121Z,991.83
2019-04-27T03:30:36.656Z,991.79
2019-04-27T03:31:36.077Z,991.82
2019-04-27T03:32:36.059Z,991.81
2019-04-27T03:33:36.050Z,991.77
2019-04-27T03:34:36.037Z,991.84
2019-04-27T03:35:37.083Z,991.79
2019-04-27T03:36:36.084Z,991.88
2019-04-27T03:37:36.005Z,991.79
2019-04-27T03:38:35.990Z,991.83
2019-04-27T03:39:35.981Z,991.85
2019-04-27T03:40:35.986Z,991.85
2019-04-27T03:41:35.958Z,991.78
2019-04-27T03:42:37.941Z,991.83
2019-04-27T03:43:35.941Z,991.81
2019-04-27T03:44:35.941Z,991.84
2019-04-27T03:45:35.928Z,991.86
2019-04-27T03:46:35.910Z,991.91
2019-04-27T03:47:35.952Z,991.83
2019-04-27T03:48:35.892Z,991.81
2019-04-27T03:49:38.793Z,991.76
2019-04-27T03:50:36.877Z,991.72
2019-04-27T03:51:35.893Z,991.76
2019-04-27T03:52:35.847Z,991.73
2019-04-27T03:53:35.831Z,991.82
2019-04-27T03:54:35.821Z,991.80
2019-04-27T03:55:35.814Z,991.77
2019-04-27T03:56:35.796Z,991.78
2019-04-27T03:57:35.803Z,991.83
2019-04-27T03:58:35.779Z,991.83
2019-04-27T03:59:35.770Z,991.81
2019-04-27T04:00:35.780Z,991.81
2019-04-27T04:01:35.745Z,991.82
2019-04-27T04:02:35.753Z,991.76
2019-04-27T04:03:35.727Z,991.80
2019-04-27T04:04:35.711Z,991.75
2019-04-27T04:05:35.713Z,991.80
2019-04-27T04:06:35.690Z,991.75
2019-04-27T04:07:35.676Z,991.75
2019-04-27T04:08:35.666Z,991.68
2019-04-27T04:09:35.658Z,991.66
2019-04-27T04:10:35.661Z,991.67
2019-04-27T04:11:35.646Z,991.69
2019-04-27T04:12:35.653Z,991.73
2019-04-27T04:13:35.619Z,991.70
2019-04-27T04:14:36.945Z,991.65
2019-04-27T04:15:35.608Z,991.68
2019-04-27T04:16:35.581Z,991.65
2019-04-27T04:17:35.572Z,991.69
2019-04-27T04:18:35.556Z,991.64
2019-04-27T04:19:49.913Z,991.53
2019-04-27T04:20:36.575Z,991.57
2019-04-27T04:21:35.524Z,991.56
2019-04-27T04:22:35.515Z,991.56
2019-04-27T04:23:35.543Z,991.56
2019-04-27T04:24:35.502Z,991.59
2019-04-27T04:25:35.484Z,991.53
2019-04-27T04:26:35.493Z,991.54
2019-04-27T04:27:35.460Z,991.52
2019-04-27T04:28:35.463Z,991.47
2019-04-27T04:29:35.459Z,991.39
2019-04-27T04:30:35.440Z,991.47
2019-04-27T04:31:35.430Z,991.53
2019-04-27T04:32:35.414Z,991.50
2019-04-27T04:33:35.396Z,991.53
2019-04-27T04:34:35.383Z,991.52
2019-04-27T04:35:35.382Z,991.55
2019-04-27T04:36:35.378Z,991.60
2019-04-27T04:37:35.365Z,991.63
2019-04-27T04:38:35.345Z,991.61
2019-04-27T04:39:35.336Z,991.68
2019-04-27T04:40:35.325Z,991.58
2019-04-27T04:41:35.340Z,991.62
2019-04-27T04:42:35.298Z,991.62
2019-04-27T04:43:35.287Z,991.65
2019-04-27T04:44:35.291Z,991.70
2019-04-27T04:45:35.273Z,991.67
2019-04-27T04:46:35.265Z,991.70
2019-04-27T04:47:35.248Z,991.72
2019-04-27T04:48:35.235Z,991.74
2019-04-27T04:49:35.222Z,991.78
2019-04-27T04:50:35.227Z,991.81
2019-04-27T04:51:35.212Z,991.81
2019-04-27T04:52:35.194Z,991.86
2019-04-27T04:53:35.179Z,991.80
2019-04-27T04:54:35.167Z,991.89
2019-04-27T04:55:35.157Z,991.86
2019-04-27T04:56:35.159Z,991.90
2019-04-27T04:57:35.146Z,991.89
2019-04-27T04:58:35.134Z,991.90
2019-04-27T04:59:35.123Z,991.89
2019-04-27T05:00:35.107Z,991.88
2019-04-27T05:01:35.117Z,991.94
2019-04-27T05:02:35.088Z,991.90
2019-04-27T05:03:35.076Z,991.92
2019-04-27T05:04:35.068Z,991.97
2019-04-27T05:05:35.060Z,991.92
2019-04-27T05:06:35.057Z,991.91
2019-04-27T05:07:35.045Z,991.94
2019-04-27T05:08:35.020Z,992.01
2019-04-27T05:09:35.016Z,991.95
2019-04-27T05:10:34.996Z,991.98
2019-04-27T05:11:35.007Z,992.01
2019-04-27T05:12:34.988Z,991.99
2019-04-27T05:13:34.963Z,991.98
2019-04-27T05:14:34.951Z,991.97
2019-04-27T05:15:34.942Z,992.07
2019-04-27T05:16:34.975Z,992.02
2019-04-27T05:17:34.947Z,992.02
2019-04-27T05:18:34.908Z,992.03
2019-04-27T05:19:34.897Z,992.07
2019-04-27T05:20:34.886Z,992.06
2019-04-27T05:21:34.911Z,992.06
2019-04-27T05:22:34.863Z,992.13
2019-04-27T05:23:34.852Z,992.07
2019-04-27T05:24:34.849Z,992.18
2019-04-27T05:25:34.838Z,992.18
2019-04-27T05:26:34.821Z,992.13
2019-04-27T05:27:34.820Z,992.12
2019-04-27T05:28:34.798Z,992.17
2019-04-27T05:29:34.788Z,992.18
2019-04-27T05:30:34.774Z,992.18
2019-04-27T05:31:34.763Z,992.16
2019-04-27T05:32:34.789Z,992.18
2019-04-27T05:33:34.757Z,992.17
2019-04-27T05:34:34.739Z,992.20
2019-04-27T05:35:34.732Z,992.19
2019-04-27T05:36:34.716Z,992.18
2019-04-27T05:37:34.708Z,992.16
2019-04-27T05:38:34.695Z,992.15
2019-04-27T05:39:34.679Z,992.19
2019-04-27T05:40:34.667Z,992.32
2019-04-27T05:41:37.625Z,992.25
2019-04-27T05:42:34.655Z,992.28
2019-04-27T05:43:34.658Z,992.25
2019-04-27T05:44:34.621Z,992.31
2019-04-27T05:45:34.618Z,992.28
2019-04-27T05:46:35.565Z,992.28
2019-04-27T05:47:34.603Z,992.30
2019-04-27T05:48:34.606Z,992.33
2019-04-27T05:49:36.281Z,992.31
2019-04-27T05:50:41.199Z,992.24
2019-04-27T05:51:37.284Z,992.26
2019-04-27T05:52:34.561Z,992.32
2019-04-27T05:53:34.524Z,992.24
2019-04-27T05:54:34.514Z,992.29
2019-04-27T05:55:34.503Z,992.23
2019-04-27T05:56:34.491Z,992.28
2019-04-27T05:57:34.504Z,992.27
2019-04-27T05:58:34.486Z,992.23
2019-04-27T05:59:34.465Z,992.27
2019-04-27T06:00:34.447Z,992.22
2019-04-27T06:01:34.438Z,992.28
2019-04-27T06:02:34.466Z,992.28
2019-04-27T06:03:34.424Z,992.37
2019-04-27T06:04:34.404Z,992.28
2019-04-27T06:05:34.396Z,992.26
2019-04-27T06:06:34.385Z,992.31
2019-04-27T06:07:34.401Z,992.30
2019-04-27T06:08:34.365Z,992.18
2019-04-27T06:09:34.357Z,992.30
2019-04-27T06:10:34.339Z,992.24
2019-04-27T06:11:34.334Z,992.25
2019-04-27T06:12:34.341Z,992.34
2019-04-27T06:13:34.313Z,992.36
2019-04-27T06:14:34.296Z,992.33
2019-04-27T06:15:34.337Z,992.35
2019-04-27T06:16:34.277Z,992.37
2019-04-27T06:17:34.306Z,992.43
2019-04-27T06:18:34.258Z,992.39
2019-04-27T06:19:34.248Z,992.46
2019-04-27T06:20:34.233Z,992.41
2019-04-27T06:21:34.240Z,992.40
2019-04-27T06:22:34.239Z,992.47
2019-04-27T06:23:34.217Z,992.41
2019-04-27T06:24:34.195Z,992.47
2019-04-27T06:25:34.181Z,992.39
2019-04-27T06:26:34.169Z,992.41
2019-04-27T06:27:34.171Z,992.39
2019-04-27T06:28:34.144Z,992.41
2019-04-27T06:29:34.137Z,992.39
2019-04-27T06:30:34.132Z,992.48
2019-04-27T06:31:34.125Z,992.36
2019-04-27T06:32:34.139Z,992.39
2019-04-27T06:33:34.488Z,992.38
2019-04-27T06:34:34.103Z,992.34
2019-04-27T06:35:34.068Z,992.40
2019-04-27T06:36:34.070Z,992.33
2019-04-27T06:37:34.055Z,992.40
2019-04-27T06:38:34.060Z,992.37
2019-04-27T06:39:34.031Z,992.35
2019-04-27T06:40:35.399Z,992.37
2019-04-27T06:41:34.029Z,992.40
2019-04-27T06:42:33.993Z,992.35
2019-04-27T06:43:34.012Z,992.36
2019-04-27T06:44:33.987Z,992.36
2019-04-27T06:45:33.959Z,992.38
2019-04-27T06:46:33.948Z,992.38
2019-04-27T06:47:33.937Z,992.42
2019-04-27T06:48:33.937Z,992.39
2019-04-27T06:49:33.945Z,992.50
2019-04-27T06:50:33.901Z,992.38
2019-04-27T06:51:33.895Z,992.39
2019-04-27T06:52:33.886Z,992.41
2019-04-27T06:53:33.888Z,992.40
2019-04-27T06:54:33.866Z,992.32
2019-04-27T06:55:33.868Z,992.41
2019-04-27T06:56:33.855Z,992.42
2019-04-27T06:57:33.824Z,992.40
2019-04-27T06:58:33.830Z,992.48
2019-04-27T06:59:33.803Z,992.46
2019-04-27T07:00:33.850Z,992.38
2019-04-27T07:01:33.786Z,992.45
2019-04-27T07:02:33.795Z,992.46
2019-04-27T07:03:33.826Z,992.55
2019-04-27T07:04:33.745Z,992.47
2019-04-27T07:05:33.736Z,992.44
2019-04-27T07:06:33.728Z,992.44
2019-04-27T07:07:33.722Z,992.40
2019-04-27T07:08:33.868Z,992.44
2019-04-27T07:09:33.699Z,992.44
2019-04-27T07:10:33.685Z,992.42
2019-04-27T07:11:33.670Z,992.39
2019-04-27T07:12:33.667Z,992.48
2019-04-27T07:13:33.661Z,992.49
2019-04-27T07:14:33.652Z,992.56
2019-04-27T07:15:33.625Z,992.58
2019-04-27T07:16:33.615Z,992.61
2019-04-27T07:17:33.605Z,992.57
2019-04-27T07:18:33.612Z,992.62
2019-04-27T07:19:33.609Z,992.56
2019-04-27T07:20:33.579Z,992.61
2019-04-27T07:21:33.566Z,992.58
2019-04-27T07:22:33.554Z,992.44
2019-04-27T07:23:33.548Z,992.56
2019-04-27T07:24:33.535Z,992.54
2019-04-27T07:25:33.518Z,992.53
2019-04-27T07:26:33.509Z,992.47
2019-04-27T07:27:33.506Z,992.54
2019-04-27T07:28:33.496Z,992.54
2019-04-27T07:29:33.492Z,992.51
2019-04-27T07:30:33.462Z,992.56
2019-04-27T07:31:33.451Z,992.57
2019-04-27T07:32:33.446Z,992.56
2019-04-27T07:33:33.449Z,992.52
2019-04-27T07:34:33.418Z,992.58
2019-04-27T07:35:33.409Z,992.60
2019-04-27T07:36:33.398Z,992.55
2019-04-27T07:37:33.419Z,992.54
2019-04-27T07:38:33.393Z,992.59
2019-04-27T07:39:33.369Z,992.59
2019-04-27T07:40:33.352Z,992.63
2019-04-27T07:41:33.341Z,992.56
2019-04-27T07:42:34.120Z,992.63
2019-04-27T07:43:33.328Z,992.55
2019-04-27T07:44:33.312Z,992.53
2019-04-27T07:45:33.314Z,992.59
2019-04-27T07:46:33.298Z,992.66
2019-04-27T07:47:33.275Z,992.62
2019-04-27T07:48:33.273Z,992.66
2019-04-27T07:49:33.252Z,992.62
2019-04-27T07:50:33.259Z,992.57
2019-04-27T07:51:34.398Z,992.68
2019-04-27T07:52:33.217Z,992.65
2019-04-27T07:53:33.225Z,992.67
2019-04-27T07:54:33.197Z,992.64
2019-04-27T07:55:33.202Z,992.57
2019-04-27T07:56:33.214Z,992.56
2019-04-27T07:57:33.164Z,992.66
2019-04-27T07:58:33.164Z,992.64
2019-04-27T07:59:33.145Z,992.59
2019-04-27T08:00:33.133Z,992.65
2019-04-27T08:01:33.119Z,992.63
2019-04-27T08:02:33.109Z,992.71
2019-04-27T08:03:33.111Z,992.63
2019-04-27T08:04:33.090Z,992.60
2019-04-27T08:05:33.101Z,992.61
2019-04-27T08:06:33.065Z,992.58
2019-04-27T08:07:33.053Z,992.54
2019-04-27T08:08:33.056Z,992.58
2019-04-27T08:09:33.035Z,992.61
2019-04-27T08:10:33.023Z,992.65
2019-04-27T08:11:33.027Z,992.55
2019-04-27T08:12:33.002Z,992.60
2019-04-27T08:13:33.001Z,992.61
2019-04-27T08:14:32.981Z,992.55
2019-04-27T08:15:32.995Z,992.54
2019-04-27T08:16:32.956Z,992.51
2019-04-27T08:17:32.956Z,992.46
2019-04-27T08:18:32.948Z,992.52
2019-04-27T08:19:32.928Z,992.52
2019-04-27T08:20:32.914Z,992.45
2019-04-27T08:21:43.077Z,992.51
2019-04-27T08:22:33.924Z,992.56
2019-04-27T08:23:32.883Z,992.48
2019-04-27T08:24:32.884Z,992.51
2019-04-27T08:25:32.886Z,992.50
2019-04-27T08:26:32.849Z,992.52
2019-04-27T08:27:32.838Z,992.48
2019-04-27T08:28:32.835Z,992.53
2019-04-27T08:29:33.016Z,992.51
2019-04-27T08:30:32.825Z,992.58
2019-04-27T08:31:32.791Z,992.62
2019-04-27T08:32:32.802Z,992.58
2019-04-27T08:33:32.771Z,992.54
2019-04-27T08:34:32.772Z,992.57
2019-04-27T08:35:32.878Z,992.51
2019-04-27T08:36:32.737Z,992.55
2019-04-27T08:37:32.727Z,992.62
2019-04-27T08:38:32.723Z,992.63
2019-04-27T08:39:32.714Z,992.52
2019-04-27T08:40:32.725Z,992.55
2019-04-27T08:41:32.702Z,992.54
2019-04-27T08:42:32.677Z,992.51
2019-04-27T08:43:32.665Z,992.58
2019-04-27T08:44:32.673Z,992.60
2019-04-27T08:45:32.651Z,992.58
2019-04-27T08:46:32.631Z,992.53
2019-04-27T08:47:32.637Z,992.57
2019-04-27T08:48:36.708Z,992.53
2019-04-27T08:49:32.612Z,992.50
2019-04-27T08:50:32.586Z,992.52
2019-04-27T08:51:32.574Z,992.45
2019-04-27T08:52:32.564Z,992.50
2019-04-27T08:53:32.557Z,992.46
2019-04-27T08:54:32.555Z,992.49
2019-04-27T08:55:32.532Z,992.47
2019-04-27T08:56:32.523Z,992.46
2019-04-27T08:57:32.509Z,992.39
2019-04-27T08:58:32.505Z,992.34
2019-04-27T08:59:32.509Z,992.33
2019-04-27T09:00:32.507Z,992.32
2019-04-27T09:01:32.471Z,992.32
2019-04-27T09:02:41.677Z,992.36
2019-04-27T09:03:33.452Z,992.22
2019-04-27T09:04:32.446Z,992.30
2019-04-27T09:05:32.428Z,992.29
2019-04-27T09:06:32.414Z,992.27
2019-04-27T09:07:32.402Z,992.21
2019-04-27T09:08:32.389Z,992.25
2019-04-27T09:09:32.393Z,992.22
2019-04-27T09:10:32.371Z,992.25
2019-04-27T09:11:32.359Z,992.18
2019-04-27T09:12:32.346Z,992.22
2019-04-27T09:13:32.338Z,992.17
2019-04-27T09:14:32.335Z,992.16
2019-04-27T09:15:32.334Z,992.12
2019-04-27T09:16:32.315Z,992.18
2019-04-27T09:17:32.303Z,992.21
2019-04-27T09:18:32.636Z,992.15
2019-04-27T09:19:32.287Z,992.17
2019-04-27T09:20:32.269Z,992.12
2019-04-27T09:21:32.252Z,992.17
2019-04-27T09:22:32.235Z,992.14
2019-04-27T09:23:32.225Z,992.18
2019-04-27T09:24:32.221Z,992.17
2019-04-27T09:25:32.220Z,992.13
2019-04-27T09:26:32.194Z,992.19
2019-04-27T09:27:32.185Z,992.15
2019-04-27T09:28:32.174Z,992.15
2019-04-27T09:29:32.171Z,992.22
2019-04-27T09:30:32.162Z,992.27
2019-04-27T09:31:32.145Z,992.31
2019-04-27T09:32:32.127Z,992.22
2019-04-27T09:33:32.119Z,992.29
2019-04-27T09:34:32.114Z,992.28
2019-04-27T09:35:32.104Z,992.29
2019-04-27T09:36:32.087Z,992.26
2019-04-27T09:37:32.088Z,992.31
2019-04-27T09:38:32.065Z,992.22
2019-04-27T09:39:32.051Z,992.24
2019-04-27T09:40:32.063Z,992.19
2019-04-27T09:41:32.040Z,992.15
2019-04-27T09:42:32.030Z,992.13
2019-04-27T09:43:32.005Z,992.19
2019-04-27T09:44:31.997Z,992.14
2019-04-27T09:45:31.997Z,992.07
2019-04-27T09:46:31.977Z,992.16
2019-04-27T09:47:31.962Z,992.08
2019-04-27T09:48:31.964Z,992.11
2019-04-27T09:49:31.940Z,992.06
2019-04-27T09:50:31.942Z,992.06
2019-04-27T09:51:31.920Z,992.01
2019-04-27T09:52:31.910Z,992.03
2019-04-27T09:53:31.905Z,992.13
2019-04-27T09:54:31.887Z,992.06
2019-04-27T09:55:31.913Z,992.07
2019-04-27T09:56:31.871Z,992.11
2019-04-27T09:57:31.859Z,992.08
2019-04-27T09:58:31.843Z,992.02
2019-04-27T09:59:31.838Z,991.98
2019-04-27T10:00:31.842Z,991.98
2019-04-27T10:01:31.813Z,991.89
2019-04-27T10:02:31.800Z,991.95
2019-04-27T10:03:31.876Z,991.88
2019-04-27T10:04:31.778Z,991.89
2019-04-27T10:05:31.780Z,991.85
2019-04-27T10:06:31.759Z,991.92
2019-04-27T10:07:31.746Z,991.90
2019-04-27T10:08:31.734Z,991.81
2019-04-27T10:09:31.724Z,991.86
2019-04-27T10:10:31.724Z,991.88
2019-04-27T10:11:31.701Z,991.85
2019-04-27T10:12:34.242Z,991.86
2019-04-27T10:13:31.681Z,991.77
2019-04-27T10:14:31.684Z,991.83
2019-04-27T10:15:31.675Z,991.85
2019-04-27T10:16:31.649Z,991.74
2019-04-27T10:17:31.638Z,991.81
2019-04-27T10:18:31.625Z,991.77
2019-04-27T10:19:33.178Z,991.80
2019-04-27T10:20:31.612Z,991.82
2019-04-27T10:21:31.593Z,991.71
2019-04-27T10:22:40.546Z,991.66
2019-04-27T10:23:32.574Z,991.61
2019-04-27T10:24:31.562Z,991.70
2019-04-27T10:25:31.569Z,991.57
2019-04-27T10:26:31.561Z,991.63
2019-04-27T10:27:31.536Z,991.59
2019-04-27T10:28:31.515Z,991.65
2019-04-27T10:29:31.506Z,991.64
2019-04-27T10:30:31.505Z,991.53
2019-04-27T10:31:31.485Z,991.53
2019-04-27T10:32:31.474Z,991.62
2019-04-27T10:33:31.460Z,991.55
2019-04-27T10:34:31.449Z,991.44
2019-04-27T10:35:31.480Z,991.50
2019-04-27T10:36:31.427Z,991.50
2019-04-27T10:37:31.417Z,991.48
2019-04-27T10:38:31.437Z,991.45
2019-04-27T10:39:31.408Z,991.40
2019-04-27T10:40:31.419Z,991.40
2019-04-27T10:41:31.374Z,991.49
2019-04-27T10:42:31.370Z,991.40
2019-04-27T10:43:31.351Z,991.31
2019-04-27T10:44:31.340Z,991.29
2019-04-27T10:45:31.339Z,991.17
2019-04-27T10:46:31.328Z,991.35
2019-04-27T10:47:31.310Z,991.36
2019-04-27T10:48:31.297Z,991.37
2019-04-27T10:49:31.285Z,991.38
2019-04-27T10:50:31.286Z,991.42
2019-04-27T10:51:31.283Z,991.40
2019-04-27T10:52:31.265Z,991.42
2019-04-27T10:53:31.248Z,991.36
2019-04-27T10:54:31.226Z,991.36
2019-04-27T10:55:31.217Z,991.42
2019-04-27T10:56:31.217Z,991.33
2019-04-27T10:57:31.213Z,991.33
2019-04-27T10:58:31.182Z,991.39
2019-04-27T10:59:31.170Z,991.38
2019-04-27T11:00:31.174Z,991.29
2019-04-27T11:01:31.161Z,991.30
2019-04-27T11:02:31.138Z,991.31
2019-04-27T11:03:31.146Z,991.11
2019-04-27T11:04:31.116Z,991.26
2019-04-27T11:05:31.332Z,991.26
2019-04-27T11:06:31.116Z,991.32
2019-04-27T11:07:31.084Z,991.23
2019-04-27T11:08:31.078Z,991.31
2019-04-27T11:09:31.061Z,991.36
2019-04-27T11:10:31.049Z,991.28
2019-04-27T11:11:31.053Z,991.40
2019-04-27T11:12:31.030Z,991.28
2019-04-27T11:13:31.017Z,991.18
2019-04-27T11:14:31.010Z,991.11
2019-04-27T11:15:30.997Z,991.14
2019-04-27T11:16:30.996Z,991.29
2019-04-27T11:17:30.975Z,991.44
2019-04-27T11:18:30.962Z,991.18
2019-04-27T11:19:30.966Z,991.08
2019-04-27T11:20:30.942Z,991.27
2019-04-27T11:21:30.940Z,991.02
2019-04-27T11:22:30.919Z,991.04
2019-04-27T11:23:30.909Z,991.09
2019-04-27T11:24:30.900Z,991.18
2019-04-27T11:25:30.893Z,991.10
2019-04-27T11:26:30.885Z,991.04
2019-04-27T11:27:30.866Z,991.08
2019-04-27T11:28:30.876Z,990.98
2019-04-27T11:29:30.844Z,991.10
2019-04-27T11:30:30.842Z,991.07
2019-04-27T11:31:30.839Z,991.03
2019-04-27T11:32:30.812Z,990.98
2019-04-27T11:33:30.798Z,990.98
2019-04-27T11:34:30.797Z,991.08
2019-04-27T11:35:30.778Z,990.97
2019-04-27T11:36:30.774Z,991.11
2019-04-27T11:37:30.754Z,991.10
2019-04-27T11:38:30.744Z,991.02
2019-04-27T11:39:30.734Z,991.08
2019-04-27T11:40:30.725Z,991.04
2019-04-27T11:41:30.730Z,990.94
2019-04-27T11:42:30.700Z,991.01
2019-04-27T11:43:30.692Z,990.96
2019-04-27T11:44:30.680Z,990.97
2019-04-27T11:45:30.682Z,991.01
2019-04-27T11:46:30.676Z,990.98
2019-04-27T11:47:30.645Z,991.02
2019-04-27T11:48:30.633Z,990.95
2019-04-27T11:49:30.624Z,990.94
2019-04-27T11:50:30.610Z,990.95
2019-04-27T11:51:30.598Z,990.85
2019-04-27T11:52:30.599Z,990.87
2019-04-27T11:53:30.581Z,990.86
2019-04-27T11:54:30.563Z,990.78
2019-04-27T11:55:30.559Z,990.82
2019-04-27T11:56:30.544Z,990.75
2019-04-27T11:57:30.543Z,990.87
2019-04-27T11:58:30.521Z,990.70
2019-04-27T11:59:30.510Z,990.71
2019-04-27T12:00:30.498Z,990.74
2019-04-27T12:01:30.489Z,990.71
2019-04-27T12:02:30.493Z,990.71
2019-04-27T12:03:30.474Z,990.79
2019-04-27T12:04:30.456Z,990.77
2019-04-27T12:05:30.442Z,990.80
2019-04-27T12:06:30.436Z,990.79
2019-04-27T12:07:30.446Z,990.75
2019-04-27T12:08:30.416Z,990.82
2019-04-27T12:09:30.401Z,990.80
2019-04-27T12:10:30.388Z,990.78
2019-04-27T12:11:30.381Z,990.71
2019-04-27T12:12:30.384Z,990.79
2019-04-27T12:13:30.362Z,990.68
2019-04-27T12:14:30.345Z,990.72
2019-04-27T12:15:30.337Z,990.76
2019-04-27T12:16:30.339Z,990.78
2019-04-27T12:17:30.327Z,990.71
2019-04-27T12:18:30.306Z,990.73
2019-04-27T12:19:30.296Z,990.77
2019-04-27T12:20:30.280Z,990.75
2019-04-27T12:21:30.270Z,990.78
2019-04-27T12:22:30.270Z,990.74
2019-04-27T12:23:35.603Z,990.62
2019-04-27T12:24:31.236Z,990.70
2019-04-27T12:25:30.241Z,990.77
2019-04-27T12:26:30.216Z,990.67
2019-04-27T12:27:30.214Z,990.71
2019-04-27T12:28:30.192Z,990.70